Terminal Aerodrome Forecast
Issued by NWS Corpus Christi, TX

Home | Current Version | Previous Version | Text Only | Print | Product List | Glossary On
Versions: 1 2 3 4 5 6 7 8 9 10 11 12 13 14 15 16
000
FTUS44 KCRP 152300
TAFCRP
TAF
KCRP 152327Z 1600/1624 01009KT P6SM SKC
     FM160300 10005KT P6SM SKC
     FM161500 13012KT P6SM SCT030
     FM161700 13018G25KT P6SM SCT035 BKN250=

USA.gov is the U.S. government's official web portal to all federal, state and local government web resources and services.